createdAt,value
2018-02-06T00:00:24.766Z,1025.78
2018-02-06T00:01:46.867Z,1025.76
2018-02-06T00:03:08.893Z,1025.73
2018-02-06T00:04:31.070Z,1025.73
2018-02-06T00:05:53.128Z,1025.74
2018-02-06T00:07:15.266Z,1025.67
2018-02-06T00:08:36.849Z,1025.68
2018-02-06T00:09:58.732Z,1025.66
2018-02-06T00:11:20.832Z,1025.68
2018-02-06T00:12:42.694Z,1025.67
2018-02-06T00:14:04.560Z,1025.65
2018-02-06T00:15:26.704Z,1025.66
2018-02-06T00:16:48.453Z,1025.65
2018-02-06T00:18:10.341Z,1025.6
2018-02-06T00:19:32.894Z,1025.59
2018-02-06T00:20:55.073Z,1025.55
2018-02-06T00:22:16.441Z,1025.51
2018-02-06T00:23:38.550Z,1025.52
2018-02-06T00:25:00.444Z,1025.56
2018-02-06T00:26:21.784Z,1025.56
2018-02-06T00:27:43.938Z,1025.55
2018-02-06T00:29:05.804Z,1025.47
2018-02-06T00:30:27.664Z,1025.51
2018-02-06T00:31:49.266Z,1025.45
2018-02-06T00:33:11.414Z,1025.4
2018-02-06T00:34:33.283Z,1025.42
2018-02-06T00:35:54.903Z,1025.38
2018-02-06T00:37:16.731Z,1025.37
2018-02-06T00:38:38.874Z,1025.38
2018-02-06T00:40:00.743Z,1025.34
2018-02-06T00:41:22.367Z,1025.38
2018-02-06T00:42:44.227Z,1025.35
2018-02-06T00:44:06.171Z,1025.35
2018-02-06T00:45:27.784Z,1025.31
2018-02-06T00:46:49.454Z,1025.28
2018-02-06T00:48:11.045Z,1025.26
2018-02-06T00:49:32.955Z,1025.25
2018-02-06T00:50:54.864Z,1025.25
2018-02-06T00:52:16.196Z,1025.2
2018-02-06T00:53:38.064Z,1025.22
2018-02-06T00:55:00.008Z,1025.19
2018-02-06T00:56:21.865Z,1025.06
2018-02-06T00:57:44.297Z,1025.07
2018-02-06T00:59:06.174Z,1025.07
2018-02-06T01:00:28.304Z,1025.02
2018-02-06T01:01:49.882Z,1025
2018-02-06T01:03:11.973Z,1025
2018-02-06T01:04:33.894Z,1025.04
2018-02-06T01:05:55.735Z,1024.96
2018-02-06T01:07:17.856Z,1024.95
2018-02-06T01:08:39.734Z,1024.93
2018-02-06T01:10:01.322Z,1024.94
2018-02-06T01:11:22.663Z,1024.94
2018-02-06T01:12:44.795Z,1024.91
2018-02-06T01:14:06.683Z,1024.89
2018-02-06T01:15:28.274Z,1024.95
2018-02-06T01:16:50.235Z,1024.9
2018-02-06T01:18:11.559Z,1024.83
2018-02-06T01:19:33.164Z,1024.82
2018-02-06T01:20:54.900Z,1024.78
2018-02-06T01:22:16.497Z,1024.82
2018-02-06T01:23:38.709Z,1024.77
2018-02-06T01:25:00.324Z,1024.74
2018-02-06T01:26:22.174Z,1024.69
2018-02-06T01:27:44.287Z,1024.66
2018-02-06T01:29:06.132Z,1024.6
2018-02-06T01:30:28.010Z,1024.6
2018-02-06T01:31:49.962Z,1024.59
2018-02-06T01:33:11.295Z,1024.57
2018-02-06T01:34:33.409Z,1024.58
2018-02-06T01:35:55.617Z,1024.56
2018-02-06T01:37:17.456Z,1024.49
2018-02-06T01:38:39.427Z,1024.56
2018-02-06T01:40:01.031Z,1024.54
2018-02-06T01:41:22.984Z,1024.42
2018-02-06T01:42:44.875Z,1024.46
2018-02-06T01:44:06.776Z,1024.46
2018-02-06T01:45:28.818Z,1024.38
2018-02-06T01:46:50.699Z,1024.45
2018-02-06T01:48:12.273Z,1024.43
2018-02-06T01:49:34.191Z,1024.4
2018-02-06T01:50:56.119Z,1024.36
2018-02-06T01:52:17.969Z,1024.29
2018-02-06T01:53:39.834Z,1024.29
2018-02-06T01:55:01.150Z,1024.25
2018-02-06T01:56:22.471Z,1024.24
2018-02-06T01:57:43.544Z,1024.21
2018-02-06T01:59:05.661Z,1024.17
2018-02-06T02:00:27.258Z,1024.17
2018-02-06T02:01:49.110Z,1024.15
2018-02-06T02:03:10.748Z,1024.18
2018-02-06T02:04:32.730Z,1024.12
2018-02-06T02:05:54.354Z,1024.11
2018-02-06T02:07:16.745Z,1024.12
2018-02-06T02:08:38.892Z,1024.09
2018-02-06T02:10:01.097Z,1024.08
2018-02-06T02:11:23.247Z,1024.09
2018-02-06T02:12:45.354Z,1024.11
2018-02-06T02:14:07.315Z,1024.08
2018-02-06T02:15:29.173Z,1024.05
2018-02-06T02:16:50.852Z,1024.03
2018-02-06T02:18:12.203Z,1024.02
2018-02-06T02:19:34.045Z,1023.95
2018-02-06T02:20:55.644Z,1023.93
2018-02-06T02:22:17.272Z,1023.92
2018-02-06T02:23:39.175Z,1023.95
2018-02-06T02:25:01.076Z,1023.92
2018-02-06T02:26:22.973Z,1023.86
2018-02-06T02:27:44.606Z,1023.86
2018-02-06T02:29:06.461Z,1023.79
2018-02-06T02:30:27.794Z,1023.79
2018-02-06T02:31:49.730Z,1023.77
2018-02-06T02:33:11.329Z,1023.75
2018-02-06T02:34:32.915Z,1023.72
2018-02-06T02:35:54.754Z,1023.76
2018-02-06T02:37:16.344Z,1023.74
2018-02-06T02:38:38.213Z,1023.76
2018-02-06T02:40:00.070Z,1023.73
2018-02-06T02:41:21.917Z,1023.71
2018-02-06T04:38:39.702Z,1022.44
2018-02-06T04:40:01.505Z,1022.39
2018-02-06T04:41:23.661Z,1022.4
2018-02-06T04:42:45.528Z,1022.41
2018-02-06T04:44:06.851Z,1022.33
2018-02-06T04:45:28.464Z,1022.33
2018-02-06T04:46:50.331Z,1022.35
2018-02-06T04:48:11.700Z,1022.36
2018-02-06T04:49:33.292Z,1022.34
2018-02-06T04:50:55.152Z,1022.3
2018-02-06T04:52:17.095Z,1022.26
2018-02-06T04:53:39.234Z,1022.22
2018-02-06T04:55:01.163Z,1022.2
2018-02-06T04:56:23.278Z,1022.17
2018-02-06T04:57:45.106Z,1022.19
2018-02-06T04:59:06.447Z,1022.17
2018-02-06T05:00:28.091Z,1022.16
2018-02-06T05:01:49.723Z,1022.18
2018-02-06T05:03:11.891Z,1022.18
2018-02-06T05:04:33.876Z,1022.16
2018-02-06T05:05:55.996Z,1022.13
2018-02-06T05:07:17.334Z,1022.12
2018-02-06T05:08:39.242Z,1022.15
2018-02-06T05:10:00.839Z,1022.05
2018-02-06T05:11:22.495Z,1022.07
2018-02-06T05:12:44.717Z,1022.04
2018-02-06T05:14:06.831Z,1022.06
2018-02-06T05:15:28.701Z,1021.99
2018-02-06T05:16:50.132Z,1022
2018-02-06T05:18:11.772Z,1021.97
2018-02-06T05:19:33.369Z,1021.97
2018-02-06T05:20:54.753Z,1021.92
2018-02-06T05:22:16.671Z,1021.9
2018-02-06T05:23:38.571Z,1021.89
2018-02-06T05:24:59.991Z,1021.91
2018-02-06T05:26:21.591Z,1021.88
2018-02-06T05:27:43.443Z,1021.85
2018-02-06T05:29:05.304Z,1021.83
2018-02-06T05:30:27.238Z,1021.84
2018-02-06T05:31:49.361Z,1021.84
2018-02-06T05:33:10.970Z,1021.85
2018-02-06T05:34:33.090Z,1021.82
2018-02-06T05:35:54.689Z,1021.81
2018-02-06T05:37:16.552Z,1021.78
2018-02-06T05:38:38.459Z,1021.77
2018-02-06T05:40:00.318Z,1021.77
2018-02-06T05:41:22.413Z,1021.72
2018-02-06T05:42:43.750Z,1021.71
2018-02-06T05:44:05.231Z,1021.68
2018-02-06T05:45:27.132Z,1021.67
2018-02-06T05:46:48.832Z,1021.64
2018-02-06T05:48:10.780Z,1021.62
2018-02-06T05:49:31.639Z,1021.61
2018-02-06T05:50:53.478Z,1021.59
2018-02-06T05:52:15.075Z,1021.6
2018-02-06T05:53:36.700Z,1021.61
2018-02-06T05:54:58.272Z,1021.55
2018-02-06T05:56:20.371Z,1021.53
2018-02-06T05:57:42.214Z,1021.58
2018-02-06T05:59:03.800Z,1021.53
2018-02-06T06:00:25.694Z,1021.54
2018-02-06T06:01:47.287Z,1021.5
2018-02-06T06:03:09.429Z,1021.51
2018-02-06T06:04:31.553Z,1021.44
2018-02-06T06:05:53.432Z,1021.46
2018-02-06T06:07:15.540Z,1021.44
2018-02-06T06:08:37.180Z,1021.45
2018-02-06T06:09:59.056Z,1021.41
2018-02-06T06:11:20.658Z,1021.35
2018-02-06T06:12:42.609Z,1021.37
2018-02-06T06:14:04.789Z,1021.34
2018-02-06T06:15:26.440Z,1021.31
2018-02-06T06:16:48.048Z,1021.34
2018-02-06T06:18:10.150Z,1021.32
2018-02-06T06:19:31.753Z,1021.29
2018-02-06T06:20:53.614Z,1021.3
2018-02-06T06:22:15.223Z,1021.28
2018-02-06T06:23:37.446Z,1021.27
2018-02-06T06:24:59.060Z,1021.25
2018-02-06T06:26:20.455Z,1021.23
2018-02-06T06:27:42.030Z,1021.21
2018-02-06T06:29:03.892Z,1021.19
2018-02-06T06:30:25.743Z,1021.23
2018-02-06T06:31:47.581Z,1021.21
2018-02-06T06:33:09.450Z,1021.23
2018-02-06T06:34:31.291Z,1021.22
2018-02-06T06:35:52.610Z,1021.21
2018-02-06T06:37:14.198Z,1021.22
2018-02-06T06:38:36.059Z,1021.23
2018-02-06T06:39:57.647Z,1021.24
2018-02-06T06:41:19.240Z,1021.26
2018-02-06T06:42:40.862Z,1021.28
2018-02-06T06:44:02.461Z,1021.25
2018-02-06T06:45:24.341Z,1021.27
2018-02-06T06:46:45.961Z,1021.21
2018-02-06T06:48:07.852Z,1021.23
2018-02-06T06:49:30.085Z,1021.19
2018-02-06T06:50:51.701Z,1021.18
2018-02-06T06:52:13.631Z,1021.21
2018-02-06T06:53:35.486Z,1021.16
2018-02-06T06:54:57.141Z,1021.13
2018-02-06T06:56:18.810Z,1021.15
2018-02-06T06:57:40.781Z,1021.17
2018-02-06T06:59:02.627Z,1021.14
2018-02-06T07:00:24.781Z,1021.17
2018-02-06T07:01:47.298Z,1021.16
2018-02-06T07:03:09.208Z,1021.16
2018-02-06T07:04:30.928Z,1021.21
2018-02-06T07:05:52.787Z,1021.16
2018-02-06T07:07:14.971Z,1021.2
2018-02-06T07:08:37.119Z,1021.22
2018-02-06T07:09:59.220Z,1021.18
2018-02-06T07:11:20.814Z,1021.17
2018-02-06T07:12:42.767Z,1021.14
2018-02-06T07:14:04.640Z,1021.17
2018-02-06T07:15:26.758Z,1021.15
2018-02-06T07:16:49.158Z,1021.18
2018-02-06T07:18:11.387Z,1021.19
2018-02-06T07:19:33.563Z,1021.21
2018-02-06T07:20:55.424Z,1021.19
2018-02-06T07:22:17.042Z,1021.18
2018-02-06T07:23:39.224Z,1021.17
2018-02-06T07:25:01.336Z,1021.16
2018-02-06T07:26:22.941Z,1021.11
2018-02-06T07:27:44.881Z,1021.15
2018-02-06T07:29:06.542Z,1021.19
2018-02-06T07:30:28.971Z,1021.18
2018-02-06T07:31:50.951Z,1021.19
2018-02-06T07:33:12.837Z,1021.21
2018-02-06T07:34:34.968Z,1021.21
2018-02-06T07:35:56.838Z,1021.17
2018-02-06T07:37:18.970Z,1021.18
2018-02-06T07:38:41.124Z,1021.2
2018-02-06T07:40:03.462Z,1021.18
2018-02-06T07:41:25.620Z,1021.21
2018-02-06T07:42:47.531Z,1021.15
2018-02-06T07:44:09.173Z,1021.12
2018-02-06T07:45:31.405Z,1021.15
2018-02-06T07:46:53.382Z,1021.12
2018-02-06T07:48:15.252Z,1021.08
2018-02-06T07:49:37.407Z,1021.11
2018-02-06T07:50:59.037Z,1021.1
2018-02-06T07:52:20.932Z,1021.09
2018-02-06T07:53:42.826Z,1021.09
2018-02-06T07:55:04.743Z,1021.1
2018-02-06T07:56:26.716Z,1021.1
2018-02-06T07:57:48.870Z,1021.11
2018-02-06T07:59:10.789Z,1021.14
2018-02-06T08:00:32.666Z,1021.17
2018-02-06T08:01:54.301Z,1021.14
2018-02-06T08:03:16.421Z,1021.14
2018-02-06T08:04:38.543Z,1021.15
2018-02-06T08:06:00.407Z,1021.16
2018-02-06T08:07:22.524Z,1021.18
2018-02-06T08:08:44.645Z,1021.2
2018-02-06T08:10:06.821Z,1021.15
2018-02-06T08:11:28.936Z,1021.13
2018-02-06T08:12:50.858Z,1021.1
2018-02-06T08:14:12.453Z,1021.09
2018-02-06T08:15:34.576Z,1021.07
2018-02-06T08:16:56.229Z,1021.08
2018-02-06T08:18:18.441Z,1021.06
2018-02-06T08:19:40.629Z,1021.07
2018-02-06T08:21:02.819Z,1021.04
2018-02-06T08:22:24.440Z,1021.06
2018-02-06T08:23:45.771Z,1021.03
2018-02-06T08:25:07.620Z,1020.99
2018-02-06T08:26:29.692Z,1020.94
2018-02-06T08:27:51.530Z,1020.92
2018-02-06T08:29:13.459Z,1020.92
2018-02-06T08:30:35.606Z,1020.91
2018-02-06T08:31:57.292Z,1020.9
2018-02-06T08:33:19.670Z,1020.91
2018-02-06T08:34:41.542Z,1020.95
2018-02-06T08:36:03.901Z,1020.9
2018-02-06T08:37:26.025Z,1020.89
2018-02-06T08:38:48.002Z,1020.85
2018-02-06T08:40:10.255Z,1020.83
2018-02-06T08:41:32.115Z,1020.82
2018-02-06T08:42:54.331Z,1020.71
2018-02-06T08:44:16.479Z,1020.74
2018-02-06T08:45:38.701Z,1020.79
2018-02-06T08:47:00.563Z,1020.78
2018-02-06T08:48:22.418Z,1020.77
2018-02-06T08:49:44.020Z,1020.71
2018-02-06T08:51:05.895Z,1020.71
2018-02-06T08:52:27.757Z,1020.72
2018-02-06T08:53:49.390Z,1020.69
2018-02-06T08:55:11.317Z,1020.67
2018-02-06T08:56:33.521Z,1020.68
2018-02-06T08:57:55.661Z,1020.68
2018-02-06T08:59:17.595Z,1020.72
2018-02-06T09:00:39.801Z,1020.69
2018-02-06T09:02:01.943Z,1020.69
2018-02-06T09:03:23.811Z,1020.64
2018-02-06T09:04:45.159Z,1020.65
2018-02-06T09:06:07.292Z,1020.66
2018-02-06T09:07:29.171Z,1020.61
2018-02-06T09:08:51.357Z,1020.61
2018-02-06T09:10:13.490Z,1020.59
2018-02-06T09:11:35.111Z,1020.54
2018-02-06T09:12:56.809Z,1020.52
2018-02-06T09:14:18.674Z,1020.58
2018-02-06T09:15:40.899Z,1020.56
2018-02-06T09:17:02.643Z,1020.55
2018-02-06T09:18:24.773Z,1020.64
2018-02-06T09:19:46.364Z,1020.62
2018-02-06T09:21:08.234Z,1020.59
2018-02-06T09:22:29.827Z,1020.59
2018-02-06T09:23:51.941Z,1020.62
2018-02-06T09:25:13.783Z,1020.6
2018-02-06T09:26:35.942Z,1020.6
2018-02-06T09:27:57.024Z,1020.6
2018-02-06T09:29:19.048Z,1020.59
2018-02-06T09:30:40.913Z,1020.6
2018-02-06T09:32:02.611Z,1020.56
2018-02-06T09:33:24.511Z,1020.53
2018-02-06T09:34:46.370Z,1020.54
2018-02-06T09:36:08.294Z,1020.53
2018-02-06T09:37:29.913Z,1020.5
2018-02-06T09:38:51.874Z,1020.48
2018-02-06T09:40:14.056Z,1020.49
2018-02-06T09:41:36.162Z,1020.48
2018-02-06T09:42:58.043Z,1020.43
2018-02-06T09:44:20.241Z,1020.42
2018-02-06T09:45:42.387Z,1020.43
2018-02-06T09:47:04.453Z,1020.41
2018-02-06T09:48:26.562Z,1020.29
2018-02-06T09:49:48.704Z,1020.35
2018-02-06T09:51:10.832Z,1020.3
2018-02-06T09:52:32.771Z,1020.28
2018-02-06T09:53:54.912Z,1020.24
2018-02-06T09:55:16.797Z,1020.24
2018-02-06T09:56:39.189Z,1020.26
2018-02-06T09:58:01.305Z,1020.27
2018-02-06T09:59:23.445Z,1020.3
2018-02-06T10:00:45.576Z,1020.24
2018-02-06T10:02:07.742Z,1020.28
2018-02-06T10:03:29.665Z,1020.26
2018-02-06T10:04:51.575Z,1020.25
2018-02-06T10:06:13.925Z,1020.22
2018-02-06T10:07:35.880Z,1020.17
2018-02-06T10:08:57.522Z,1020.15
2018-02-06T10:10:19.148Z,1020.2
2018-02-06T10:11:41.001Z,1020.17
2018-02-06T10:13:02.597Z,1020.1
2018-02-06T10:14:24.723Z,1020.14
2018-02-06T10:15:46.842Z,1020.12
2018-02-06T10:17:08.490Z,1020.07
2018-02-06T10:18:30.719Z,1020.08
2018-02-06T10:19:52.853Z,1020.03
2018-02-06T10:21:14.783Z,1020.04
2018-02-06T10:22:36.663Z,1020.04
2018-02-06T10:23:58.750Z,1019.98
2018-02-06T10:25:20.624Z,1020.01
2018-02-06T10:26:42.211Z,1019.97
2018-02-06T10:28:04.193Z,1019.95
2018-02-06T10:29:26.052Z,1019.9
2018-02-06T10:30:47.997Z,1019.91
2018-02-06T10:32:09.718Z,1019.91
2018-02-06T10:33:31.677Z,1019.9
2018-02-06T10:34:53.643Z,1019.82
2018-02-06T10:36:15.747Z,1019.78
2018-02-06T10:37:37.632Z,1019.74
2018-02-06T10:38:59.512Z,1019.73
2018-02-06T10:40:21.610Z,1019.77
2018-02-06T10:41:43.200Z,1019.72
2018-02-06T10:43:04.908Z,1019.77
2018-02-06T10:44:26.485Z,1019.73
2018-02-06T10:45:48.371Z,1019.74
2018-02-06T10:47:09.704Z,1019.74
2018-02-06T10:48:31.819Z,1019.7
2018-02-06T10:49:53.694Z,1019.66
2018-02-06T10:51:15.816Z,1019.64
2018-02-06T10:52:37.943Z,1019.62
2018-02-06T10:54:00.122Z,1019.57
2018-02-06T10:55:22.156Z,1019.57
2018-02-06T10:56:43.479Z,1019.59
2018-02-06T10:58:05.764Z,1019.65
2018-02-06T10:59:27.397Z,1019.62
2018-02-06T11:00:49.342Z,1019.62
2018-02-06T11:02:11.580Z,1019.6
2018-02-06T11:03:33.831Z,1019.59
2018-02-06T11:04:56.021Z,1019.61
2018-02-06T11:06:17.610Z,1019.61
2018-02-06T11:07:39.734Z,1019.59
2018-02-06T11:09:01.308Z,1019.6
2018-02-06T11:10:23.173Z,1019.58
2018-02-06T11:11:45.097Z,1019.56
2018-02-06T11:13:07.211Z,1019.6
2018-02-06T11:14:29.083Z,1019.58
2018-02-06T11:15:51.186Z,1019.56
2018-02-06T11:17:13.462Z,1019.49
2018-02-06T11:18:35.673Z,1019.51
2018-02-06T11:19:57.647Z,1019.49
2018-02-06T11:21:19.514Z,1019.46
2018-02-06T11:22:41.659Z,1019.4
2018-02-06T11:24:03.962Z,1019.4
2018-02-06T11:25:26.166Z,1019.39
2018-02-06T11:26:48.270Z,1019.36
2018-02-06T11:28:10.396Z,1019.37
2018-02-06T11:29:31.989Z,1019.38
2018-02-06T11:30:53.833Z,1019.42
2018-02-06T11:32:15.275Z,1019.36
2018-02-06T11:33:37.425Z,1019.36
2018-02-06T11:34:59.580Z,1019.35
2018-02-06T11:36:21.192Z,1019.32
2018-02-06T11:37:43.402Z,1019.31
2018-02-06T11:39:05.262Z,1019.35
2018-02-06T11:40:27.373Z,1019.33
2018-02-06T11:41:49.502Z,1019.35
2018-02-06T11:43:11.504Z,1019.38
2018-02-06T11:44:33.621Z,1019.35
2018-02-06T11:45:55.473Z,1019.33
2018-02-06T11:47:16.856Z,1019.31
2018-02-06T11:48:38.982Z,1019.33
2018-02-06T11:50:00.864Z,1019.33
2018-02-06T11:51:22.479Z,1019.34
2018-02-06T11:52:44.602Z,1019.29
2018-02-06T11:54:06.728Z,1019.29
2018-02-06T11:55:28.589Z,1019.22
2018-02-06T11:56:50.477Z,1019.28
2018-02-06T11:58:12.330Z,1019.21
2018-02-06T11:59:34.576Z,1019.27
2018-02-06T12:00:56.717Z,1019.2
2018-02-06T12:02:18.615Z,1019.16
2018-02-06T12:03:40.493Z,1019.12
2018-02-06T12:05:02.324Z,1019.18
2018-02-06T12:06:23.916Z,1019.12
2018-02-06T12:07:45.802Z,1019.11
2018-02-06T12:09:07.974Z,1019.07
2018-02-06T12:10:30.111Z,1019.06
2018-02-06T12:11:51.721Z,1019.08
2018-02-06T12:13:13.894Z,1019.04
2018-02-06T12:14:35.858Z,1018.99
2018-02-06T12:15:58.145Z,1018.97
2018-02-06T12:17:19.750Z,1018.89
2018-02-06T12:18:41.701Z,1018.9
2018-02-06T12:20:03.822Z,1018.84
2018-02-06T12:21:26.022Z,1018.79
2018-02-06T12:22:47.920Z,1018.76
2018-02-06T12:24:09.523Z,1018.76
2018-02-06T12:25:31.582Z,1018.71
2018-02-06T12:26:53.455Z,1018.74
2018-02-06T12:28:15.577Z,1018.72
2018-02-06T12:29:37.747Z,1018.66
2018-02-06T12:30:59.559Z,1018.62
2018-02-06T12:32:21.402Z,1018.58
2018-02-06T12:33:43.261Z,1018.62
2018-02-06T12:35:05.464Z,1018.58
2018-02-06T12:36:27.332Z,1018.6
2018-02-06T12:37:49.278Z,1018.58
2018-02-06T12:39:11.145Z,1018.55
2018-02-06T12:40:33.621Z,1018.56
2018-02-06T12:41:55.479Z,1018.53
2018-02-06T12:43:17.461Z,1018.56
2018-02-06T12:44:39.414Z,1018.54
2018-02-06T12:46:01.528Z,1018.53
2018-02-06T12:47:23.645Z,1018.61
2018-02-06T12:48:45.835Z,1018.56
2018-02-06T12:50:07.702Z,1018.53
2018-02-06T12:51:29.761Z,1018.49
2018-02-06T12:52:51.105Z,1018.46
2018-02-06T12:54:13.230Z,1018.41
2018-02-06T12:55:35.649Z,1018.38
2018-02-06T12:56:57.512Z,1018.38
2018-02-06T12:58:19.662Z,1018.29
2018-02-06T12:59:41.044Z,1018.29
2018-02-06T13:01:03.199Z,1018.28
2018-02-06T13:02:25.333Z,1018.29
2018-02-06T13:03:47.418Z,1018.25
2018-02-06T13:05:09.661Z,1018.21
2018-02-06T13:06:31.361Z,1018.18
2018-02-06T13:07:52.680Z,1018.18
2018-02-06T13:09:14.553Z,1018.17
2018-02-06T13:10:36.203Z,1018.13
2018-02-06T13:11:58.366Z,1018.16
2018-02-06T13:13:20.477Z,1018.15
2018-02-06T13:14:42.108Z,1018.14
2018-02-06T13:16:04.288Z,1018.11
2018-02-06T13:17:25.955Z,1018.09
2018-02-06T13:18:47.819Z,1018.03
2018-02-06T13:20:09.671Z,1017.99
2018-02-06T13:21:31.552Z,1017.99
2018-02-06T13:22:53.774Z,1018.03
2018-02-06T13:24:15.917Z,1017.96
2018-02-06T13:25:37.791Z,1018
2018-02-06T13:26:59.692Z,1017.94
2018-02-06T13:28:22.110Z,1017.9
2018-02-06T13:29:44.060Z,1017.89
2018-02-06T13:31:06.242Z,1017.77
2018-02-06T13:32:28.369Z,1017.77
2018-02-06T13:33:49.995Z,1017.75
2018-02-06T13:35:12.121Z,1017.73
2018-02-06T13:36:34.260Z,1017.68
2018-02-06T13:37:56.397Z,1017.67
2018-02-06T13:39:18.267Z,1017.68
2018-02-06T13:40:40.151Z,1017.71
2018-02-06T13:42:01.810Z,1017.75
2018-02-06T13:43:23.673Z,1017.74
2018-02-06T13:44:45.590Z,1017.68
2018-02-06T13:46:07.691Z,1017.66
2018-02-06T13:47:29.310Z,1017.66
2018-02-06T13:48:51.214Z,1017.64
2018-02-06T13:50:13.413Z,1017.68
2018-02-06T13:51:35.441Z,1017.66
2018-02-06T13:52:57.596Z,1017.6
2018-02-06T13:54:19.209Z,1017.55
2018-02-06T13:55:40.831Z,1017.56
2018-02-06T13:57:02.551Z,1017.53
2018-02-06T13:58:24.818Z,1017.57
2018-02-06T13:59:46.885Z,1017.54
2018-02-06T14:01:09.282Z,1017.52
2018-02-06T14:02:31.467Z,1017.47
2018-02-06T14:03:53.114Z,1017.53
2018-02-06T14:05:15.281Z,1017.48
2018-02-06T14:06:37.230Z,1017.45
2018-02-06T14:07:58.842Z,1017.43
2018-02-06T14:09:20.989Z,1017.45
2018-02-06T14:10:42.606Z,1017.39
2018-02-06T14:12:04.782Z,1017.3
2018-02-06T14:13:26.674Z,1017.33
2018-02-06T14:14:48.823Z,1017.27
2018-02-06T14:16:10.966Z,1017.3
2018-02-06T14:17:32.577Z,1017.32
2018-02-06T14:18:54.783Z,1017.33
2018-02-06T14:20:16.963Z,1017.3
2018-02-06T14:21:38.875Z,1017.3
2018-02-06T14:23:01.013Z,1017.24
2018-02-06T14:24:23.171Z,1017.24
2018-02-06T14:25:45.098Z,1017.28
2018-02-06T14:27:06.993Z,1017.25
2018-02-06T14:28:28.885Z,1017.23
2018-02-06T14:29:51.044Z,1017.25
2018-02-06T14:31:13.184Z,1017.28
2018-02-06T14:32:35.311Z,1017.24
2018-02-06T14:33:56.931Z,1017.23
2018-02-06T14:35:18.902Z,1017.25
2018-02-06T14:36:41.025Z,1017.22
2018-02-06T14:38:02.964Z,1017.24
2018-02-06T14:39:24.854Z,1017.19
2018-02-06T14:40:47.012Z,1017.18
2018-02-06T14:42:09.233Z,1017.15
2018-02-06T14:43:31.461Z,1017.08
2018-02-06T14:44:53.610Z,1017.06
2018-02-06T14:46:15.751Z,1017.07
2018-02-06T14:47:37.134Z,1017.05
2018-02-06T14:48:59.110Z,1017.09
2018-02-06T14:50:21.084Z,1017.11
2018-02-06T14:51:42.687Z,1017.04
2018-02-06T14:53:04.633Z,1017.06
2018-02-06T14:54:26.800Z,1017.05
2018-02-06T14:55:48.965Z,1017.1
2018-02-06T14:57:11.187Z,1017.14
2018-02-06T14:58:32.851Z,1017.12
2018-02-06T14:59:55.121Z,1017.12
2018-02-06T15:01:17.291Z,1017.08
2018-02-06T15:02:39.170Z,1017.13
2018-02-06T15:04:01.157Z,1017.11
2018-02-06T15:05:23.081Z,1017.12
2018-02-06T15:06:45.242Z,1017.15
2018-02-06T15:08:06.649Z,1017.08
2018-02-06T15:09:28.820Z,1017.13
2018-02-06T15:10:50.691Z,1017.15
2018-02-06T15:12:12.882Z,1017.11
2018-02-06T15:13:35.142Z,1017.07
2018-02-06T15:14:57.293Z,1017.08
2018-02-06T15:16:19.501Z,1017.09
2018-02-06T15:17:41.381Z,1017.07
2018-02-06T15:19:03.301Z,1017.08
2018-02-06T15:20:25.157Z,1017.11
2018-02-06T15:21:47.293Z,1017.12
2018-02-06T15:23:09.534Z,1017.12
2018-02-06T15:24:31.415Z,1017.07
2018-02-06T15:25:53.363Z,1017.08
2018-02-06T15:27:14.980Z,1017.07
2018-02-06T15:28:37.104Z,1017.07
2018-02-06T15:29:59.240Z,1017.07
2018-02-06T15:31:22.040Z,1017.08
2018-02-06T15:32:44.034Z,1017.09
2018-02-06T15:34:06.256Z,1017.07
2018-02-06T15:35:28.381Z,1017.01
2018-02-06T15:36:50.512Z,1017.03
2018-02-06T15:38:12.130Z,1017.04
2018-02-06T15:39:34.007Z,1017.05
2018-02-06T15:40:55.907Z,1017.04
2018-02-06T15:42:18.032Z,1017.05
2018-02-06T15:43:40.191Z,1017.05
2018-02-06T15:45:02.349Z,1017.1
2018-02-06T15:46:24.493Z,1017.13
2018-02-06T15:47:46.633Z,1017.09
2018-02-06T15:49:08.254Z,1017.16
2018-02-06T15:50:30.392Z,1017.14
2018-02-06T15:51:52.592Z,1017.14
2018-02-06T15:53:14.731Z,1017.17
2018-02-06T15:54:36.682Z,1017.21
2018-02-06T15:55:58.275Z,1017.11
2018-02-06T15:57:20.426Z,1017.1
2018-02-06T15:58:42.563Z,1017.1
2018-02-06T16:00:04.753Z,1017.09
2018-02-06T16:01:26.671Z,1017.11
2018-02-06T16:02:48.594Z,1017.09
2018-02-06T16:04:10.714Z,1017.1
2018-02-06T16:05:33.013Z,1017.1
2018-02-06T16:06:54.976Z,1017.07
2018-02-06T16:08:16.923Z,1017.06
2018-02-06T16:09:39.104Z,1017.12
2018-02-06T16:11:00.991Z,1017.11
2018-02-06T16:12:23.672Z,1017.1
2018-02-06T16:13:46.043Z,1017.03
2018-02-06T16:15:07.954Z,1017.05
2018-02-06T16:16:29.595Z,1017.02
2018-02-06T16:17:51.681Z,1017.06
2018-02-06T16:19:13.844Z,1017.1
2018-02-06T16:20:35.788Z,1017.04
2018-02-06T16:21:57.783Z,1017.06
2018-02-06T16:23:20.119Z,1017.06
2018-02-06T16:24:42.252Z,1017.12
2018-02-06T16:26:04.184Z,1017.13
2018-02-06T16:27:26.471Z,1017.11
2018-02-06T16:28:48.496Z,1017.12
2018-02-06T16:30:10.624Z,1017.09
2018-02-06T16:31:32.954Z,1017.07
2018-02-06T16:32:55.158Z,1017.09
2018-02-06T16:34:17.111Z,1017.08
2018-02-06T16:35:39.262Z,1017.08
2018-02-06T16:37:01.141Z,1017.04
2018-02-06T16:38:23.020Z,1017.04
2018-02-06T16:39:45.265Z,1016.99
2018-02-06T16:41:07.426Z,1017
2018-02-06T16:42:29.060Z,1016.96
2018-02-06T16:43:51.226Z,1017
2018-02-06T16:45:13.233Z,1016.96
2018-02-06T16:46:35.182Z,1016.94
2018-02-06T16:47:57.363Z,1016.96
2018-02-06T16:49:19.544Z,1016.98
2018-02-06T16:50:41.709Z,1017
2018-02-06T16:52:03.335Z,1017
2018-02-06T16:53:25.373Z,1017
2018-02-06T16:54:47.263Z,1016.98
2018-02-06T16:56:09.374Z,1016.94
2018-02-06T16:57:31.294Z,1016.98
2018-02-06T16:58:53.183Z,1016.99
2018-02-06T17:00:15.049Z,1016.97
2018-02-06T17:01:36.987Z,1017
2018-02-06T17:02:59.144Z,1017.02
2018-02-06T17:04:21.020Z,1017.03
2018-02-06T17:05:42.894Z,1017.02
2018-02-06T17:07:05.024Z,1017
2018-02-06T17:08:27.175Z,1017.01
2018-02-06T17:09:49.085Z,1016.95
2018-02-06T17:11:10.972Z,1016.96
2018-02-06T17:12:32.075Z,1016.95
2018-02-06T17:13:54.205Z,1016.91
2018-02-06T17:15:16.363Z,1016.88
2018-02-06T17:16:37.978Z,1016.89
2018-02-06T17:17:59.983Z,1016.91
2018-02-06T17:19:21.986Z,1016.95
2018-02-06T17:20:43.355Z,1016.95
2018-02-06T17:22:05.533Z,1016.91
2018-02-06T17:23:27.807Z,1016.9
2018-02-06T17:24:49.961Z,1016.93
2018-02-06T17:26:12.144Z,1016.88
2018-02-06T17:27:34.318Z,1016.94
2018-02-06T17:28:56.487Z,1016.89
2018-02-06T17:30:18.881Z,1016.93
2018-02-06T17:31:41.141Z,1016.88
2018-02-06T17:33:03.403Z,1016.87
2018-02-06T17:34:25.394Z,1016.89
2018-02-06T17:35:46.807Z,1016.84
2018-02-06T17:37:08.970Z,1016.89
2018-02-06T17:38:30.878Z,1016.86
2018-02-06T17:39:53.105Z,1016.85
2018-02-06T17:41:15.033Z,1016.85
2018-02-06T17:42:36.941Z,1016.87
2018-02-06T17:43:58.823Z,1016.87
2018-02-06T17:45:21.036Z,1016.88
2018-02-06T17:46:43.201Z,1016.89
2018-02-06T17:48:05.459Z,1016.85
2018-02-06T17:49:27.644Z,1016.9
2018-02-06T17:50:49.855Z,1016.89
2018-02-06T17:52:12.152Z,1016.9
2018-02-06T17:53:33.824Z,1016.92
2018-02-06T17:54:56.213Z,1016.91
2018-02-06T17:56:18.464Z,1016.9
2018-02-06T17:57:40.379Z,1016.94
2018-02-06T17:59:02.285Z,1016.89
2018-02-06T18:00:24.165Z,1016.96
2018-02-06T18:01:46.333Z,1016.98
2018-02-06T18:03:08.236Z,1017
2018-02-06T18:04:30.114Z,1017.02
2018-02-06T18:05:52.264Z,1017.02
2018-02-06T18:07:14.461Z,1017.03
2018-02-06T18:08:36.105Z,1017.03
2018-02-06T18:09:58.336Z,1017.04
2018-02-06T18:11:20.361Z,1017.06
2018-02-06T18:12:42.294Z,1017.02
2018-02-06T18:14:04.217Z,1016.99
2018-02-06T18:15:26.353Z,1016.97
2018-02-06T18:16:48.376Z,1017
2018-02-06T18:18:10.050Z,1016.99
2018-02-06T18:19:32.210Z,1016.99
2018-02-06T18:20:54.362Z,1017
2018-02-06T18:22:16.524Z,1016.98
2018-02-06T18:23:38.705Z,1016.97
2018-02-06T18:25:01.100Z,1016.96
2018-02-06T18:26:23.356Z,1016.99
2018-02-06T18:27:45.680Z,1016.98
2018-02-06T18:29:07.906Z,1017
2018-02-06T18:30:30.086Z,1017
2018-02-06T18:31:52.257Z,1017.01